createdAt,value
2023-03-06T00:00:46.027Z,7.84
2023-03-06T00:03:12.821Z,7.58
2023-03-06T00:05:40.091Z,7.36
2023-03-06T00:08:06.971Z,7.08
2023-03-06T00:10:33.985Z,7.09
2023-03-06T00:13:03.751Z,6.89
2023-03-06T00:15:30.659Z,6.75
2023-03-06T00:17:58.026Z,6.58
2023-03-06T00:20:25.558Z,6.48
2023-03-06T00:22:52.458Z,6.26
2023-03-06T00:25:21.300Z,6.11
2023-03-06T00:27:48.444Z,6.38
2023-03-06T00:30:19.038Z,6.31
2023-03-06T00:32:45.755Z,6.03
2023-03-06T00:35:13.422Z,6.13
2023-03-06T00:37:40.072Z,6.20
2023-03-06T00:40:15.275Z,6.28
2023-03-06T00:42:42.118Z,6.30
2023-03-06T00:45:09.877Z,6.28
2023-03-06T00:47:36.916Z,6.21
2023-03-06T00:50:04.611Z,6.17
2023-03-06T00:52:31.578Z,6.23
2023-03-06T00:54:58.250Z,6.35
2023-03-06T00:57:25.094Z,6.25
2023-03-06T00:59:51.822Z,6.31
2023-03-06T01:02:20.711Z,6.33
2023-03-06T01:04:47.349Z,6.24
2023-03-06T01:07:14.014Z,6.09
2023-03-06T01:09:40.980Z,6.08
2023-03-06T01:12:08.155Z,6.07
2023-03-06T01:14:35.341Z,6.02
2023-03-06T01:17:01.976Z,5.87
2023-03-06T01:19:28.649Z,5.97
2023-03-06T01:21:55.189Z,6.01
2023-03-06T01:24:23.927Z,6.07
2023-03-06T01:26:50.561Z,5.90
2023-03-06T01:29:17.318Z,6.14
2023-03-06T01:31:43.960Z,6.04
2023-03-06T01:34:10.661Z,6.04
2023-03-06T01:36:37.387Z,6.02
2023-03-06T01:39:04.040Z,6.13
2023-03-06T01:41:32.570Z,5.93
2023-03-06T01:43:59.477Z,5.56
2023-03-06T01:46:28.759Z,5.78
2023-03-06T01:48:59.167Z,5.63
2023-03-06T01:51:30.357Z,5.76
2023-03-06T01:54:00.568Z,5.60
2023-03-06T01:56:28.489Z,5.59
2023-03-06T01:58:55.629Z,5.75
2023-03-06T02:01:23.315Z,5.53
2023-03-06T02:03:50.995Z,5.64
2023-03-06T02:06:21.755Z,5.66
2023-03-06T02:08:51.248Z,5.85
2023-03-06T02:11:23.864Z,5.82
2023-03-06T02:13:52.664Z,5.78
2023-03-06T02:16:24.206Z,5.77
2023-03-06T02:18:51.220Z,5.75
2023-03-06T02:21:25.440Z,5.79
2023-03-06T02:23:51.929Z,5.73
2023-03-06T02:26:21.686Z,5.63
2023-03-06T02:28:48.338Z,5.72
2023-03-06T02:31:28.999Z,5.65
2023-03-06T02:34:24.661Z,5.63
2023-03-06T02:37:00.691Z,5.58
2023-03-06T02:39:32.589Z,5.59
2023-03-06T02:41:59.295Z,5.38
2023-03-06T02:44:30.027Z,5.41
2023-03-06T02:46:56.646Z,5.44
2023-03-06T02:49:26.127Z,5.36
2023-03-06T02:51:53.082Z,5.41
2023-03-06T02:54:19.686Z,5.45
2023-03-06T02:56:46.581Z,5.49
2023-03-06T02:59:13.347Z,5.58
2023-03-06T03:01:40.207Z,5.47
2023-03-06T03:04:08.103Z,5.55
2023-03-06T03:06:34.788Z,5.60
2023-03-06T03:09:01.845Z,5.67
2023-03-06T03:11:28.912Z,5.42
2023-03-06T03:13:55.796Z,5.32
2023-03-06T03:16:24.292Z,5.34
2023-03-06T03:18:53.711Z,5.26
2023-03-06T03:21:22.757Z,5.41
2023-03-06T03:23:49.396Z,5.41
2023-03-06T03:26:19.208Z,5.41
2023-03-06T03:28:56.294Z,5.25
2023-03-06T03:31:23.076Z,5.20
2023-03-06T03:33:50.138Z,5.23
2023-03-06T03:36:18.404Z,5.23
2023-03-06T03:38:47.059Z,5.44
2023-03-06T03:41:14.373Z,5.48
2023-03-06T03:43:42.912Z,5.45
2023-03-06T03:46:10.074Z,5.35
2023-03-06T03:48:37.089Z,5.19
2023-03-06T03:51:07.595Z,5.05
2023-03-06T03:53:37.064Z,4.96
2023-03-06T03:56:04.563Z,4.95
2023-03-06T03:58:34.044Z,4.91
2023-03-06T04:01:01.128Z,4.81
2023-03-06T04:03:28.366Z,4.81
2023-03-06T04:05:55.559Z,4.83
2023-03-06T04:08:24.139Z,4.75
2023-03-06T04:10:51.759Z,4.98
2023-03-06T04:13:21.949Z,4.88
2023-03-06T04:15:51.086Z,4.89
2023-03-06T04:18:19.915Z,4.99
2023-03-06T04:20:48.919Z,5.11
2023-03-06T04:23:16.310Z,4.96
2023-03-06T04:25:43.048Z,5.06
2023-03-06T04:28:12.477Z,4.94
2023-03-06T04:30:39.574Z,5.11
2023-03-06T04:33:06.405Z,5.20
2023-03-06T04:35:33.430Z,5.25
2023-03-06T04:38:05.512Z,4.99
2023-03-06T04:40:34.300Z,5.13
2023-03-06T04:43:03.159Z,5.18
2023-03-06T04:45:30.878Z,5.16
2023-03-06T04:47:57.604Z,5.08
2023-03-06T04:50:25.529Z,5.07
2023-03-06T04:52:52.615Z,4.88
2023-03-06T04:55:19.980Z,5.18
2023-03-06T04:57:47.940Z,5.13
2023-03-06T05:00:20.764Z,5.06
2023-03-06T05:02:48.849Z,5.24
2023-03-06T05:05:16.269Z,5.35
2023-03-06T05:07:43.843Z,5.25
2023-03-06T05:10:13.618Z,4.99
2023-03-06T05:12:40.666Z,5.13
2023-03-06T05:15:08.923Z,4.95
2023-03-06T05:17:35.608Z,5.14
2023-03-06T05:20:02.259Z,5.14
2023-03-06T05:22:28.874Z,4.91
2023-03-06T05:24:55.516Z,4.93
2023-03-06T05:27:22.328Z,4.85
2023-03-06T05:29:48.987Z,4.79
2023-03-06T05:32:17.047Z,4.99
2023-03-06T05:34:43.748Z,4.98
2023-03-06T05:37:10.375Z,5.03
2023-03-06T05:39:37.210Z,5.11
2023-03-06T05:42:03.960Z,4.88
2023-03-06T05:44:34.950Z,4.87
2023-03-06T05:47:02.269Z,5.18
2023-03-06T05:49:34.452Z,5.25
2023-03-06T05:52:04.051Z,5.24
2023-03-06T05:54:32.148Z,5.36
2023-03-06T05:56:58.665Z,5.49
2023-03-06T05:59:28.381Z,5.43
2023-03-06T06:01:55.930Z,5.60
2023-03-06T06:04:24.468Z,5.75
2023-03-06T06:06:54.010Z,5.83
2023-03-06T06:09:22.324Z,5.86
2023-03-06T06:11:53.551Z,5.94
2023-03-06T06:14:20.783Z,5.88
2023-03-06T06:16:47.835Z,5.77
2023-03-06T06:19:18.660Z,5.61
2023-03-06T06:21:51.941Z,5.76
2023-03-06T06:24:21.382Z,5.68
2023-03-06T06:26:51.254Z,5.77
2023-03-06T06:29:17.909Z,5.59
2023-03-06T06:31:44.599Z,5.77
2023-03-06T06:34:12.085Z,5.93
2023-03-06T06:36:39.421Z,6.03
2023-03-06T06:39:07.790Z,6.06
2023-03-06T06:41:54.765Z,6.17
2023-03-06T06:44:21.859Z,6.15
2023-03-06T06:49:36.750Z,6.16
2023-03-06T06:52:04.569Z,6.26
2023-03-06T06:54:32.259Z,6.33
2023-03-06T06:56:59.022Z,6.23
2023-03-06T06:59:25.695Z,6.33
2023-03-06T07:01:52.646Z,6.50
2023-03-06T07:04:19.752Z,6.68
2023-03-06T07:06:46.692Z,6.69
2023-03-06T07:09:14.495Z,6.85
2023-03-06T07:11:41.679Z,6.93
2023-03-06T07:14:08.304Z,6.89
2023-03-06T07:16:35.098Z,6.99
2023-03-06T07:19:01.741Z,6.88
2023-03-06T07:21:28.438Z,6.98
2023-03-06T07:23:57.219Z,7.01
2023-03-06T07:26:25.345Z,7.18
2023-03-06T07:28:53.630Z,7.49
2023-03-06T07:31:22.601Z,7.54
2023-03-06T07:33:50.766Z,7.72
2023-03-06T07:36:17.868Z,7.90
2023-03-06T07:38:44.499Z,7.96
2023-03-06T07:41:13.736Z,8.14
2023-03-06T07:43:41.578Z,8.35
2023-03-06T07:46:09.090Z,8.46
2023-03-06T07:48:36.795Z,8.53
2023-03-06T07:51:06.922Z,8.52
2023-03-06T07:53:34.123Z,8.34
2023-03-06T07:56:00.932Z,8.23
2023-03-06T07:58:27.524Z,8.54
2023-03-06T08:00:54.098Z,8.72
2023-03-06T08:03:20.759Z,8.84
2023-03-06T08:05:47.556Z,8.97
2023-03-06T08:08:14.339Z,9.02
2023-03-06T08:10:40.971Z,9.19
2023-03-06T08:13:07.508Z,9.25
2023-03-06T08:15:34.146Z,9.26
2023-03-06T08:18:00.789Z,8.98
2023-03-06T08:20:27.411Z,8.97
2023-03-06T08:22:54.018Z,8.96
2023-03-06T08:25:20.583Z,8.99
2023-03-06T08:27:47.406Z,8.86
2023-03-06T08:30:14.769Z,9.09
2023-03-06T08:32:41.505Z,9.27
2023-03-06T08:35:08.476Z,9.53
2023-03-06T08:37:35.213Z,9.49
2023-03-06T08:40:04.544Z,9.90
2023-03-06T08:42:31.929Z,10.26
2023-03-06T08:44:58.603Z,10.50
2023-03-06T08:47:25.489Z,10.64
2023-03-06T08:49:52.301Z,10.64
2023-03-06T08:52:19.869Z,10.62
2023-03-06T08:54:46.699Z,10.96
2023-03-06T08:57:13.293Z,11.07
2023-03-06T08:59:39.888Z,11.37
2023-03-06T09:02:07.624Z,11.40
2023-03-06T09:04:34.380Z,11.71
2023-03-06T09:07:01.559Z,11.57
2023-03-06T09:09:28.192Z,11.89
2023-03-06T09:11:55.076Z,12.01
2023-03-06T09:14:21.879Z,12.20
2023-03-06T09:16:48.511Z,12.28
2023-03-06T09:19:15.168Z,12.71
2023-03-06T09:21:41.991Z,13.23
2023-03-06T09:24:08.793Z,13.99
2023-03-06T09:26:45.462Z,14.39
2023-03-06T09:29:12.799Z,14.59
2023-03-06T09:31:39.508Z,15.04
2023-03-06T09:34:06.166Z,15.41
2023-03-06T09:36:42.721Z,15.86
2023-03-06T09:39:16.003Z,16.15
2023-03-06T09:41:43.082Z,15.84
2023-03-06T09:44:16.664Z,16.16
2023-03-06T09:47:10.911Z,16.16
2023-03-06T09:49:56.368Z,16.16
2023-03-06T09:52:40.984Z,14.56
2023-03-06T09:55:18.876Z,14.26
2023-03-06T09:58:07.179Z,13.38
2023-03-06T10:00:39.676Z,13.48
2023-03-06T10:03:13.331Z,13.67
2023-03-06T10:05:44.617Z,14.10
2023-03-06T10:08:49.967Z,13.92
2023-03-06T10:11:33.993Z,13.73
2023-03-06T10:14:12.789Z,14.59
2023-03-06T10:16:40.267Z,14.89
2023-03-06T10:19:15.591Z,14.76
2023-03-06T10:22:03.445Z,15.21
2023-03-06T10:24:38.808Z,15.68
2023-03-06T10:27:14.832Z,15.74
2023-03-06T10:29:43.613Z,15.20
2023-03-06T10:32:46.124Z,15.59
2023-03-06T10:35:48.357Z,15.91
2023-03-06T10:38:37.578Z,16.26
2023-03-06T10:41:07.298Z,16.53
2023-03-06T10:43:36.534Z,16.30
2023-03-06T10:46:05.035Z,16.72
2023-03-06T10:48:35.901Z,16.75
2023-03-06T10:51:20.365Z,17.13
2023-03-06T10:53:54.656Z,17.12
2023-03-06T10:56:33.412Z,16.98
2023-03-06T10:59:28.462Z,17.27
2023-03-06T11:02:21.858Z,16.61
2023-03-06T11:04:52.991Z,16.69
2023-03-06T11:07:21.941Z,17.20
2023-03-06T11:09:57.730Z,17.16
2023-03-06T11:12:36.554Z,17.26
2023-03-06T11:15:15.004Z,17.56
2023-03-06T11:17:52.507Z,17.30
2023-03-06T11:20:48.506Z,16.90
2023-03-06T11:23:40.107Z,16.00
2023-03-06T11:26:16.105Z,17.07
2023-03-06T11:28:57.855Z,16.80
2023-03-06T11:31:29.749Z,16.79
2023-03-06T11:34:11.728Z,16.46
2023-03-06T11:36:54.618Z,16.20
2023-03-06T11:39:49.375Z,16.40
2023-03-06T11:42:21.927Z,16.74
2023-03-06T11:45:03.749Z,17.42
2023-03-06T11:48:13.829Z,17.87
2023-03-06T11:50:51.478Z,18.14
2023-03-06T11:53:36.964Z,18.09
2023-03-06T11:56:14.526Z,17.70
2023-03-06T11:59:15.819Z,17.85
2023-03-06T12:01:54.330Z,17.95
2023-03-06T12:04:39.358Z,17.16
2023-03-06T12:07:20.240Z,16.09
2023-03-06T12:09:54.925Z,16.32
2023-03-06T12:12:46.228Z,16.03
2023-03-06T12:15:28.281Z,16.40
2023-03-06T12:18:18.313Z,17.03
2023-03-06T12:21:03.990Z,17.88
2023-03-06T12:24:03.785Z,18.30
2023-03-06T12:26:54.544Z,18.86
2023-03-06T12:29:37.148Z,19.06
2023-03-06T12:32:09.856Z,19.44
2023-03-06T12:34:51.773Z,20.29
2023-03-06T12:37:35.006Z,20.45
2023-03-06T12:40:01.601Z,20.90
2023-03-06T12:42:52.609Z,21.02
2023-03-06T12:45:30.803Z,21.45
2023-03-06T12:47:58.596Z,22.51
2023-03-06T12:50:33.762Z,22.66
2023-03-06T12:53:07.424Z,22.56
2023-03-06T12:55:48.731Z,22.47
2023-03-06T12:58:30.668Z,22.91
2023-03-06T13:01:04.314Z,23.01
2023-03-06T13:03:44.880Z,23.12
2023-03-06T13:09:14.727Z,23.97
2023-03-06T13:12:15.528Z,24.07
2023-03-06T13:14:48.711Z,23.80
2023-03-06T13:17:32.450Z,22.58
2023-03-06T13:20:14.534Z,23.21
2023-03-06T13:22:43.143Z,23.66
2023-03-06T13:25:19.235Z,23.34
2023-03-06T13:27:59.096Z,22.63
2023-03-06T13:30:43.671Z,21.75
2023-03-06T13:33:30.106Z,21.37
2023-03-06T13:35:58.312Z,21.18
2023-03-06T13:38:37.049Z,22.17
2023-03-06T13:41:22.040Z,22.93
2023-03-06T13:43:51.235Z,23.70
2023-03-06T13:46:25.877Z,24.54
2023-03-06T13:49:10.645Z,26.01
2023-03-06T13:51:40.199Z,26.29
2023-03-06T13:54:09.836Z,25.87
2023-03-06T13:56:51.570Z,26.54
2023-03-06T13:59:54.409Z,25.96
2023-03-06T14:02:29.883Z,24.80
2023-03-06T14:04:58.109Z,24.24
2023-03-06T14:07:40.460Z,24.57
2023-03-06T14:10:22.381Z,23.16
2023-03-06T14:12:48.941Z,21.61
2023-03-06T14:15:28.852Z,21.18
2023-03-06T14:18:05.889Z,20.53
2023-03-06T14:20:43.651Z,19.21
2023-03-06T14:23:42.334Z,19.71
2023-03-06T14:26:43.134Z,19.45
2023-03-06T14:29:26.968Z,18.52
2023-03-06T14:31:57.713Z,18.70
2023-03-06T14:34:27.871Z,18.07
2023-03-06T14:36:58.100Z,18.26
2023-03-06T14:39:33.880Z,18.68
2023-03-06T14:42:19.420Z,18.72
2023-03-06T14:44:46.841Z,18.92
2023-03-06T14:47:25.549Z,18.56
2023-03-06T14:50:28.669Z,18.67
2023-03-06T14:53:04.385Z,18.72
2023-03-06T14:55:34.874Z,17.83
2023-03-06T14:58:04.099Z,18.46
2023-03-06T15:00:36.242Z,17.10
2023-03-06T15:03:12.635Z,16.77
2023-03-06T15:05:40.861Z,17.24
2023-03-06T15:08:08.670Z,17.62
2023-03-06T15:10:36.142Z,17.29
2023-03-06T15:13:10.051Z,17.11
2023-03-06T15:15:36.842Z,17.66
2023-03-06T15:18:22.631Z,18.75
2023-03-06T15:20:54.493Z,18.98
2023-03-06T15:23:42.528Z,19.17
2023-03-06T15:26:34.409Z,19.66
2023-03-06T15:29:27.526Z,19.59
2023-03-06T15:32:25.396Z,19.22
2023-03-06T15:35:32.811Z,18.90
2023-03-06T15:37:59.791Z,19.66
2023-03-06T15:40:29.851Z,20.92
2023-03-06T15:43:00.619Z,21.82
2023-03-06T15:45:29.442Z,22.06
2023-03-06T15:47:56.177Z,22.46
2023-03-06T15:50:28.830Z,22.94
2023-03-06T15:52:55.665Z,22.81
2023-03-06T15:55:25.843Z,22.85
2023-03-06T15:57:59.636Z,23.23
2023-03-06T16:00:40.013Z,22.96
2023-03-06T16:03:06.642Z,23.08
2023-03-06T16:05:33.214Z,21.87
2023-03-06T16:07:59.875Z,21.60
2023-03-06T16:10:29.751Z,20.91
2023-03-06T16:13:02.481Z,21.28
2023-03-06T16:15:30.577Z,20.64
2023-03-06T16:17:57.957Z,20.32
2023-03-06T16:20:28.112Z,19.43
2023-03-06T16:22:55.283Z,18.84
2023-03-06T16:25:25.904Z,18.89
2023-03-06T16:27:58.016Z,18.95
2023-03-06T16:30:27.617Z,18.79
2023-03-06T16:32:54.374Z,18.32
2023-03-06T16:35:21.604Z,18.29
2023-03-06T16:37:48.519Z,18.02
2023-03-06T16:40:27.701Z,18.33
2023-03-06T16:42:55.317Z,17.35
2023-03-06T16:45:22.768Z,16.86
2023-03-06T16:47:49.585Z,17.34
2023-03-06T16:50:29.987Z,17.10
2023-03-06T16:52:58.419Z,16.51
2023-03-06T16:55:26.502Z,16.16
2023-03-06T16:57:54.048Z,16.35
2023-03-06T17:00:22.021Z,15.74
2023-03-06T17:02:49.499Z,15.98
2023-03-06T17:05:16.721Z,15.62
2023-03-06T17:07:43.434Z,15.25
2023-03-06T17:10:13.245Z,15.10
2023-03-06T17:12:39.888Z,14.64
2023-03-06T17:15:08.108Z,14.37
2023-03-06T17:17:35.265Z,14.14
2023-03-06T17:20:08.083Z,13.65
2023-03-06T17:22:36.608Z,13.38
2023-03-06T17:25:06.772Z,13.28
2023-03-06T17:27:34.480Z,13.34
2023-03-06T17:30:01.851Z,13.25
2023-03-06T17:32:28.747Z,13.01
2023-03-06T17:34:55.473Z,13.06
2023-03-06T17:37:22.313Z,12.90
2023-03-06T17:39:49.868Z,12.66
2023-03-06T17:42:16.674Z,12.79
2023-03-06T17:44:43.270Z,12.65
2023-03-06T17:47:10.356Z,12.80
2023-03-06T17:49:36.996Z,12.79
2023-03-06T17:52:05.560Z,12.67
2023-03-06T17:54:33.333Z,12.73
2023-03-06T17:57:03.306Z,12.64
2023-03-06T17:59:31.937Z,12.97
2023-03-06T18:01:59.556Z,12.73
2023-03-06T18:04:26.699Z,12.74
2023-03-06T18:06:53.375Z,12.60
2023-03-06T18:09:19.978Z,12.76
2023-03-06T18:11:46.745Z,12.45
2023-03-06T18:14:15.792Z,12.52
2023-03-06T18:16:42.494Z,12.54
2023-03-06T18:19:11.154Z,12.36
2023-03-06T18:21:39.004Z,12.51
2023-03-06T18:24:06.042Z,12.54
2023-03-06T18:26:32.759Z,12.33
2023-03-06T18:29:02.417Z,12.45
2023-03-06T18:31:34.583Z,12.19
2023-03-06T18:34:10.716Z,12.34
2023-03-06T18:36:38.443Z,12.15
2023-03-06T18:39:09.612Z,12.29
2023-03-06T18:41:37.031Z,12.01
2023-03-06T18:44:04.983Z,11.93
2023-03-06T18:46:34.599Z,12.03
2023-03-06T18:49:01.959Z,11.94
2023-03-06T18:51:29.032Z,11.48
2023-03-06T18:53:59.837Z,11.80
2023-03-06T18:56:26.776Z,11.66
2023-03-06T18:58:53.823Z,11.79
2023-03-06T19:01:22.433Z,11.44
2023-03-06T19:03:49.205Z,11.63
2023-03-06T19:06:16.925Z,11.40
2023-03-06T19:08:44.012Z,11.43
2023-03-06T19:11:13.464Z,11.43
2023-03-06T19:13:43.043Z,11.59
2023-03-06T19:16:16.005Z,11.71
2023-03-06T19:18:42.612Z,11.47
2023-03-06T19:21:20.669Z,11.24
2023-03-06T19:23:47.593Z,11.28
2023-03-06T19:26:15.442Z,11.27
2023-03-06T19:28:42.813Z,10.98
2023-03-06T19:31:09.532Z,11.10
2023-03-06T19:33:39.078Z,10.95
2023-03-06T19:36:07.877Z,10.94
2023-03-06T19:38:34.650Z,10.57
2023-03-06T19:41:01.427Z,10.72
2023-03-06T19:43:29.179Z,10.68
2023-03-06T19:45:56.402Z,10.56
2023-03-06T19:48:23.703Z,10.63
2023-03-06T19:50:50.403Z,10.36
2023-03-06T19:53:17.102Z,9.95
2023-03-06T19:55:43.766Z,9.87
2023-03-06T19:58:11.203Z,9.88
2023-03-06T20:00:38.477Z,10.04
2023-03-06T20:03:05.316Z,9.88
2023-03-06T20:05:32.878Z,9.80
2023-03-06T20:07:59.572Z,9.73
2023-03-06T20:10:26.251Z,9.74
2023-03-06T20:12:52.922Z,9.64
2023-03-06T20:15:22.123Z,9.59
2023-03-06T20:17:48.756Z,9.69
2023-03-06T20:20:15.692Z,9.42
2023-03-06T20:22:42.360Z,9.28
2023-03-06T20:25:09.124Z,9.52
2023-03-06T20:27:35.897Z,9.43
2023-03-06T20:30:02.741Z,9.33
2023-03-06T20:32:29.514Z,9.37
2023-03-06T20:34:56.181Z,9.40
2023-03-06T20:37:22.864Z,9.30
2023-03-06T20:39:49.431Z,9.55
2023-03-06T20:42:17.642Z,9.16
2023-03-06T20:44:44.332Z,9.59
2023-03-06T20:47:10.938Z,9.13
2023-03-06T20:49:38.226Z,9.60
2023-03-06T20:52:04.832Z,9.56
2023-03-06T20:54:31.384Z,9.31
2023-03-06T20:56:58.091Z,9.28
2023-03-06T20:59:24.880Z,9.40
2023-03-06T21:01:51.583Z,9.23
2023-03-06T21:04:18.300Z,9.40
2023-03-06T21:06:46.883Z,9.49
2023-03-06T21:09:15.927Z,9.34
2023-03-06T21:11:42.909Z,9.15
2023-03-06T21:14:09.565Z,9.05
2023-03-06T21:16:36.741Z,9.02
2023-03-06T21:19:03.539Z,9.12
2023-03-06T21:21:32.782Z,8.69
2023-03-06T21:24:00.069Z,8.70
2023-03-06T21:26:29.674Z,8.55
2023-03-06T21:28:58.917Z,8.37
2023-03-06T21:31:27.051Z,8.62
2023-03-06T21:33:54.069Z,8.52
2023-03-06T21:36:24.267Z,8.46
2023-03-06T21:38:52.424Z,8.18
2023-03-06T21:41:25.813Z,8.41
2023-03-06T21:43:57.396Z,8.36
2023-03-06T21:46:24.682Z,8.14
2023-03-06T21:48:51.305Z,8.10
2023-03-06T21:51:19.765Z,8.29
2023-03-06T21:53:47.996Z,8.04
2023-03-06T21:56:17.302Z,7.98
2023-03-06T21:58:45.070Z,8.13
2023-03-06T22:01:15.721Z,8.17
2023-03-06T22:03:42.571Z,7.98
2023-03-06T22:06:14.740Z,8.23
2023-03-06T22:08:42.063Z,8.24
2023-03-06T22:11:11.716Z,8.25
2023-03-06T22:13:38.562Z,8.31
2023-03-06T22:16:06.303Z,8.31
2023-03-06T22:18:34.154Z,8.49
2023-03-06T22:21:05.698Z,8.21
2023-03-06T22:23:32.383Z,8.14
2023-03-06T22:26:07.986Z,8.36
2023-03-06T22:28:35.145Z,8.18
2023-03-06T22:31:09.564Z,8.43
2023-03-06T22:33:36.642Z,8.19
2023-03-06T22:36:07.213Z,8.28
2023-03-06T22:38:35.276Z,8.25
2023-03-06T22:41:02.401Z,7.72
2023-03-06T22:43:29.122Z,7.80
2023-03-06T22:46:01.071Z,7.79
2023-03-06T22:48:27.969Z,7.96
2023-03-06T22:50:54.689Z,7.69
2023-03-06T22:53:21.376Z,7.72
2023-03-06T22:55:48.056Z,7.92
2023-03-06T22:58:14.686Z,8.04
2023-03-06T23:00:41.281Z,8.06
2023-03-06T23:03:07.849Z,7.83
2023-03-06T23:05:34.559Z,7.81
2023-03-06T23:08:01.177Z,7.72
2023-03-06T23:10:27.805Z,7.73
2023-03-06T23:13:13.146Z,7.65
2023-03-06T23:16:02.373Z,7.36
2023-03-06T23:18:48.404Z,7.36
2023-03-06T23:21:34.514Z,7.21
2023-03-06T23:24:19.977Z,7.09
2023-03-06T23:26:46.753Z,7.31
2023-03-06T23:29:13.352Z,7.16
2023-03-06T23:31:40.090Z,7.07
2023-03-06T23:34:06.922Z,6.84
2023-03-06T23:36:33.640Z,7.03
2023-03-06T23:39:00.452Z,7.00
2023-03-06T23:41:27.210Z,6.88
2023-03-06T23:43:55.297Z,6.92
2023-03-06T23:46:22.471Z,7.04
2023-03-06T23:48:49.353Z,6.77
2023-03-06T23:51:19.166Z,6.84
2023-03-06T23:53:47.467Z,6.66
2023-03-06T23:56:14.288Z,6.56
2023-03-06T23:58:41.192Z,6.76
